createdAt,value
2017-08-18T00:00:47.502Z,99.74
2017-08-18T00:01:47.492Z,99.64
2017-08-18T00:02:47.495Z,99.99
2017-08-18T00:03:47.501Z,99.64
2017-08-18T00:04:47.505Z,99.64
2017-08-18T00:05:47.198Z,99.64
2017-08-18T00:06:47.497Z,99.64
2017-08-18T00:07:47.501Z,99.99
2017-08-18T00:08:47.504Z,99.99
2017-08-18T00:09:47.509Z,99.99
2017-08-18T00:10:47.511Z,99.99
2017-08-18T00:11:47.515Z,99.99
2017-08-18T00:12:47.515Z,99.99
2017-08-18T00:13:47.521Z,99.99
2017-08-18T00:14:47.523Z,99.99
2017-08-18T00:15:47.527Z,99.99
2017-08-18T00:16:47.526Z,99.99
2017-08-18T00:17:47.543Z,99.99
2017-08-18T00:18:47.238Z,99.99
2017-08-18T00:19:47.557Z,99.99
2017-08-18T00:20:47.563Z,99.99
2017-08-18T00:21:47.559Z,99.99
2017-08-18T00:22:47.551Z,99.99
2017-08-18T00:23:47.252Z,99.99
2017-08-18T00:24:47.570Z,99.99
2017-08-18T00:25:47.264Z,99.99
2017-08-18T00:26:47.572Z,99.99
2017-08-18T00:27:47.569Z,99.99
2017-08-18T00:28:47.571Z,99.99
2017-08-18T00:29:47.271Z,99.99
2017-08-18T00:30:47.579Z,99.99
2017-08-18T00:31:47.585Z,99.99
2017-08-18T00:32:47.582Z,99.99
2017-08-18T00:33:47.580Z,99.99
2017-08-18T00:34:47.580Z,99.99
2017-08-18T00:35:47.280Z,99.99
2017-08-18T00:36:47.281Z,99.99
2017-08-18T00:37:47.591Z,99.99
2017-08-18T00:38:47.595Z,99.99
2017-08-18T00:39:47.595Z,99.99
2017-08-18T00:40:47.293Z,99.99
2017-08-18T00:41:47.598Z,99.99
2017-08-18T00:42:47.606Z,99.99
2017-08-18T00:43:47.633Z,99.99
2017-08-18T00:44:47.306Z,99.99
2017-08-18T00:45:47.308Z,99.99
2017-08-18T00:46:47.621Z,99.99
2017-08-18T00:47:47.630Z,99.99
2017-08-18T00:48:47.634Z,99.99
2017-08-18T00:49:47.321Z,99.99
2017-08-18T00:50:47.627Z,99.99
2017-08-18T00:51:47.640Z,99.99
2017-08-18T00:52:47.330Z,99.99
2017-08-18T00:53:47.646Z,99.99
2017-08-18T00:54:47.678Z,99.99
2017-08-18T00:55:47.644Z,99.99
2017-08-18T00:56:47.649Z,99.99
2017-08-18T00:57:47.650Z,99.99
2017-08-18T00:58:47.661Z,99.99
2017-08-18T00:59:47.350Z,99.99
2017-08-18T01:00:47.657Z,99.99
2017-08-18T01:01:47.662Z,99.99
2017-08-18T01:02:47.359Z,99.99
2017-08-18T01:03:47.677Z,99.99
2017-08-18T01:04:47.669Z,99.99
2017-08-18T01:05:47.668Z,99.99
2017-08-18T01:06:47.674Z,99.99
2017-08-18T01:07:47.373Z,99.99
2017-08-18T01:08:47.375Z,99.99
2017-08-18T01:09:47.680Z,99.99
2017-08-18T01:10:47.684Z,99.99
2017-08-18T01:11:47.384Z,99.99
2017-08-18T01:12:47.689Z,99.99
2017-08-18T01:13:47.396Z,99.99
2017-08-18T01:14:47.706Z,99.99
2017-08-18T01:15:47.697Z,99.99
2017-08-18T01:16:47.398Z,99.99
2017-08-18T01:17:47.401Z,99.99
2017-08-18T01:18:47.403Z,99.99
2017-08-18T01:19:47.405Z,99.99
2017-08-18T01:20:47.713Z,99.99
2017-08-18T01:21:47.713Z,99.99
2017-08-18T01:22:47.716Z,99.99
2017-08-18T01:23:47.724Z,99.99
2017-08-18T01:24:47.722Z,99.99
2017-08-18T01:25:47.429Z,99.99
2017-08-18T01:26:47.728Z,99.99
2017-08-18T01:27:47.738Z,99.99
2017-08-18T01:28:47.432Z,99.99
2017-08-18T01:29:50.390Z,99.99
2017-08-18T01:30:47.739Z,99.99
2017-08-18T01:31:47.744Z,99.99
2017-08-18T01:32:47.748Z,99.99
2017-08-18T01:33:47.759Z,99.99
2017-08-18T01:34:47.750Z,99.99
2017-08-18T01:35:47.752Z,99.99
2017-08-18T01:36:47.760Z,99.99
2017-08-18T01:37:47.760Z,99.99
2017-08-18T01:38:47.760Z,99.99
2017-08-18T01:39:47.467Z,99.99
2017-08-18T01:40:47.767Z,99.99
2017-08-18T01:41:47.469Z,99.99
2017-08-18T01:42:47.470Z,99.99
2017-08-18T01:43:47.773Z,99.99
2017-08-18T01:44:47.777Z,99.99
2017-08-18T01:45:47.481Z,99.99
2017-08-18T01:46:47.792Z,99.99
2017-08-18T01:47:47.482Z,99.99
2017-08-18T01:48:47.790Z,99.99
2017-08-18T01:49:47.791Z,99.99
2017-08-18T01:50:47.797Z,99.99
2017-08-18T01:51:47.795Z,99.99
2017-08-18T01:52:47.806Z,99.99
2017-08-18T01:53:47.802Z,99.99
2017-08-18T01:54:47.805Z,99.99
2017-08-18T01:55:47.505Z,99.99
2017-08-18T01:56:47.812Z,99.99
2017-08-18T01:57:47.816Z,99.99
2017-08-18T01:58:47.815Z,99.99
2017-08-18T01:59:48.305Z,99.99
2017-08-18T02:00:47.522Z,99.99
2017-08-18T02:01:47.830Z,99.99
2017-08-18T02:02:47.844Z,99.99
2017-08-18T02:03:47.840Z,99.99
2017-08-18T02:04:47.840Z,99.99
2017-08-18T02:05:47.902Z,99.99
2017-08-18T02:06:47.595Z,99.99
2017-08-18T02:07:47.843Z,99.99
2017-08-18T02:08:47.844Z,99.99
2017-08-18T02:09:47.847Z,99.99
2017-08-18T02:10:47.850Z,99.99
2017-08-18T02:11:47.857Z,99.99
2017-08-18T02:12:47.860Z,99.99
2017-08-18T02:13:47.874Z,99.99
2017-08-18T02:14:51.064Z,99.99
2017-08-18T02:15:47.863Z,99.99
2017-08-18T02:16:47.865Z,99.99
2017-08-18T02:17:47.870Z,99.99
2017-08-18T02:18:47.871Z,99.99
2017-08-18T02:19:47.874Z,99.99
2017-08-18T02:20:47.881Z,99.99
2017-08-18T02:21:47.881Z,99.99
2017-08-18T02:22:47.885Z,99.99
2017-08-18T02:23:47.884Z,99.99
2017-08-18T02:24:47.887Z,99.99
2017-08-18T02:25:47.893Z,99.99
2017-08-18T02:26:47.894Z,99.99
2017-08-18T02:27:47.912Z,99.99
2017-08-18T02:28:47.904Z,99.99
2017-08-18T02:29:47.906Z,99.99
2017-08-18T02:30:47.908Z,99.99
2017-08-18T02:31:47.908Z,99.99
2017-08-18T02:32:47.913Z,99.99
2017-08-18T02:33:47.911Z,99.99
2017-08-18T02:34:47.915Z,99.99
2017-08-18T02:35:47.926Z,99.99
2017-08-18T02:36:47.927Z,99.99
2017-08-18T02:37:47.932Z,99.99
2017-08-18T02:38:47.932Z,99.99
2017-08-18T02:39:47.933Z,99.99
2017-08-18T02:40:47.932Z,99.99
2017-08-18T02:41:47.690Z,99.99
2017-08-18T02:42:47.949Z,99.99
2017-08-18T02:43:47.938Z,99.99
2017-08-18T02:44:47.941Z,99.99
2017-08-18T02:45:48.003Z,99.99
2017-08-18T02:46:48.001Z,99.99
2017-08-18T02:47:47.956Z,99.99
2017-08-18T02:48:47.954Z,99.99
2017-08-18T02:49:47.954Z,99.99
2017-08-18T02:50:47.957Z,99.99
2017-08-18T02:51:47.957Z,99.99
2017-08-18T02:52:47.962Z,99.99
2017-08-18T02:53:47.968Z,99.99
2017-08-18T02:54:47.972Z,99.99
2017-08-18T02:55:47.674Z,99.99
2017-08-18T02:56:47.971Z,99.99
2017-08-18T02:57:47.977Z,99.99
2017-08-18T02:58:47.977Z,99.99
2017-08-18T02:59:47.980Z,99.99
2017-08-18T03:00:47.981Z,99.99
2017-08-18T03:01:47.989Z,99.99
2017-08-18T03:02:47.985Z,99.99
2017-08-18T03:03:47.993Z,99.99
2017-08-18T03:04:47.993Z,99.99
2017-08-18T03:05:48.000Z,99.99
2017-08-18T03:06:48.004Z,99.99
2017-08-18T03:07:47.999Z,99.99
2017-08-18T03:08:47.705Z,99.99
2017-08-18T03:09:48.017Z,99.99
2017-08-18T03:10:48.015Z,99.99
2017-08-18T03:11:48.021Z,99.99
2017-08-18T03:12:48.017Z,99.99
2017-08-18T03:13:48.018Z,99.99
2017-08-18T03:14:48.019Z,99.99
2017-08-18T03:15:48.022Z,99.99
2017-08-18T03:16:48.025Z,99.99
2017-08-18T03:17:48.031Z,99.99
2017-08-18T03:18:48.040Z,99.99
2017-08-18T03:19:48.048Z,99.99
2017-08-18T03:20:48.042Z,99.99
2017-08-18T03:21:48.040Z,99.99
2017-08-18T03:22:48.041Z,99.99
2017-08-18T03:23:48.041Z,99.99
2017-08-18T03:24:48.042Z,99.99
2017-08-18T03:25:48.047Z,99.99
2017-08-18T03:26:48.048Z,99.99
2017-08-18T03:27:48.052Z,99.99
2017-08-18T03:28:48.056Z,99.99
2017-08-18T03:29:48.057Z,99.99
2017-08-18T03:30:48.060Z,99.99
2017-08-18T03:31:48.063Z,99.99
2017-08-18T03:32:48.068Z,99.99
2017-08-18T03:33:48.086Z,99.99
2017-08-18T03:34:48.066Z,99.99
2017-08-18T03:35:48.072Z,99.99
2017-08-18T03:36:48.072Z,99.99
2017-08-18T03:37:48.074Z,99.99
2017-08-18T03:38:48.080Z,99.99
2017-08-18T03:39:48.077Z,99.99
2017-08-18T03:40:48.087Z,99.99
2017-08-18T03:41:48.082Z,99.99
2017-08-18T03:42:48.088Z,99.99
2017-08-18T03:43:48.087Z,99.99
2017-08-18T03:44:48.089Z,99.99
2017-08-18T03:45:48.092Z,99.99
2017-08-18T03:46:48.114Z,99.99
2017-08-18T03:47:48.100Z,99.99
2017-08-18T03:48:48.100Z,99.99
2017-08-18T03:49:48.103Z,99.99
2017-08-18T03:50:48.099Z,99.99
2017-08-18T03:51:47.799Z,99.99
2017-08-18T03:52:48.103Z,99.99
2017-08-18T03:53:48.102Z,99.99
2017-08-18T03:54:48.108Z,99.99
2017-08-18T03:55:48.112Z,99.99
2017-08-18T03:56:48.110Z,99.99
2017-08-18T03:57:48.108Z,99.99
2017-08-18T03:58:48.112Z,99.99
2017-08-18T03:59:47.813Z,99.99
2017-08-18T04:00:51.220Z,99.99
2017-08-18T04:01:47.822Z,99.99
2017-08-18T04:02:48.119Z,99.99
2017-08-18T04:03:48.123Z,99.99
2017-08-18T04:04:48.124Z,99.99
2017-08-18T04:05:48.122Z,99.99
2017-08-18T04:06:47.823Z,99.99
2017-08-18T04:07:48.133Z,99.99
2017-08-18T04:08:48.131Z,99.99
2017-08-18T04:09:48.129Z,99.99
2017-08-18T04:10:48.140Z,99.99
2017-08-18T04:11:48.137Z,99.99
2017-08-18T04:12:48.136Z,99.99
2017-08-18T04:13:48.141Z,99.99
2017-08-18T04:14:48.150Z,99.99
2017-08-18T04:15:47.840Z,99.99
2017-08-18T04:16:48.148Z,99.99
2017-08-18T04:17:48.145Z,99.99
2017-08-18T04:18:48.151Z,99.99
2017-08-18T04:19:47.848Z,99.99
2017-08-18T04:20:48.151Z,99.99
2017-08-18T04:21:47.856Z,99.99
2017-08-18T04:22:47.854Z,99.99
2017-08-18T04:23:48.156Z,99.99
2017-08-18T04:24:48.165Z,99.99
2017-08-18T04:25:48.163Z,99.99
2017-08-18T04:26:48.164Z,99.99
2017-08-18T04:27:48.169Z,99.99
2017-08-18T04:28:48.170Z,99.99
2017-08-18T04:29:48.168Z,99.99
2017-08-18T04:30:48.173Z,99.99
2017-08-18T04:31:48.175Z,99.99
2017-08-18T04:32:48.177Z,99.99
2017-08-18T04:33:48.181Z,99.99
2017-08-18T04:34:48.182Z,99.99
2017-08-18T04:35:48.184Z,99.99
2017-08-18T04:36:48.188Z,99.99
2017-08-18T04:37:47.907Z,99.99
2017-08-18T04:38:48.190Z,99.99
2017-08-18T04:39:48.195Z,99.99
2017-08-18T04:40:48.203Z,99.99
2017-08-18T04:41:48.196Z,99.99
2017-08-18T04:42:48.201Z,99.99
2017-08-18T04:43:47.902Z,99.99
2017-08-18T04:44:48.209Z,99.99
2017-08-18T04:45:48.209Z,99.99
2017-08-18T04:46:48.209Z,99.99
2017-08-18T04:47:48.214Z,99.99
2017-08-18T04:48:47.921Z,99.99
2017-08-18T04:49:48.222Z,99.99
2017-08-18T04:50:48.218Z,99.99
2017-08-18T04:51:48.229Z,99.99
2017-08-18T04:52:48.223Z,99.49
2017-08-18T04:53:47.927Z,98.68
2017-08-18T04:54:48.227Z,98.54
2017-08-18T04:55:48.230Z,98.34
2017-08-18T04:56:48.236Z,98.63
2017-08-18T04:57:48.240Z,98.72
2017-08-18T04:58:48.240Z,99.11
2017-08-18T04:59:48.238Z,97.76
2017-08-18T05:00:48.247Z,95.79
2017-08-18T05:01:48.245Z,94.29
2017-08-18T05:02:48.247Z,92.27
2017-08-18T05:03:47.957Z,90.78
2017-08-18T05:04:48.253Z,90.1
2017-08-18T05:05:48.266Z,89.47
2017-08-18T05:06:48.266Z,88.51
2017-08-18T05:07:48.264Z,87.54
2017-08-18T05:08:48.294Z,87.06
2017-08-18T05:09:48.273Z,87.2
2017-08-18T05:10:48.297Z,86.24
2017-08-18T05:11:48.293Z,83.87
2017-08-18T05:12:48.291Z,82.17
2017-08-18T05:13:48.289Z,81.01
2017-08-18T05:14:47.990Z,79.22
2017-08-18T05:15:48.296Z,79.31
2017-08-18T05:16:48.304Z,77.22
2017-08-18T05:17:48.310Z,76.74
2017-08-18T05:18:48.315Z,75.43
2017-08-18T05:19:48.318Z,74.49
2017-08-18T05:20:48.336Z,74.21
2017-08-18T05:21:48.342Z,74.65
2017-08-18T05:22:48.337Z,76.29
2017-08-18T05:23:48.348Z,77.22
2017-08-18T05:24:48.043Z,77.71
2017-08-18T05:25:48.349Z,77.38
2017-08-18T05:26:48.359Z,78.73
2017-08-18T05:27:48.370Z,79.95
2017-08-18T05:28:48.382Z,80.62
2017-08-18T05:29:48.366Z,81.45
2017-08-18T05:30:48.370Z,82.42
2017-08-18T05:31:48.395Z,83.58
2017-08-18T05:32:48.387Z,84.41
2017-08-18T05:33:48.417Z,85.81
2017-08-18T05:34:48.091Z,86
2017-08-18T05:35:48.091Z,86.96
2017-08-18T05:36:48.407Z,86.77
2017-08-18T05:37:48.439Z,87.3
2017-08-18T05:38:48.451Z,87.6
2017-08-18T05:39:48.421Z,88.17
2017-08-18T05:40:48.445Z,87.98
2017-08-18T05:41:48.431Z,87.79
2017-08-18T05:42:48.451Z,88.85
2017-08-18T05:43:48.124Z,89.33
2017-08-18T05:44:48.457Z,89.43
2017-08-18T05:45:48.450Z,88.85
2017-08-18T05:46:49.389Z,89.23
2017-08-18T05:47:48.465Z,89.23
2017-08-18T05:48:48.470Z,89.91
2017-08-18T05:49:48.459Z,89.39
2017-08-18T05:50:48.459Z,89.72
2017-08-18T05:51:48.469Z,89.72
2017-08-18T05:52:48.163Z,88.65
2017-08-18T05:53:48.473Z,88.85
2017-08-18T05:54:48.475Z,87.7
2017-08-18T05:55:48.476Z,87.21
2017-08-18T05:56:48.513Z,87.21
2017-08-18T05:57:48.176Z,86.68
2017-08-18T05:58:48.511Z,86.77
2017-08-18T05:59:48.517Z,86.04
2017-08-18T06:00:48.513Z,85.46
2017-08-18T06:01:50.350Z,84.89
2017-08-18T06:02:48.518Z,84.31
2017-08-18T06:03:48.513Z,83.87
2017-08-18T06:04:48.519Z,82.81
2017-08-18T06:05:48.534Z,82.81
2017-08-18T06:06:48.529Z,82.23
2017-08-18T06:07:48.547Z,82.07
2017-08-18T06:08:48.523Z,81.98
2017-08-18T06:09:48.542Z,81.59
2017-08-18T06:10:48.542Z,82.07
2017-08-18T06:11:48.558Z,81.3
2017-08-18T06:12:48.565Z,80.72
2017-08-18T06:13:48.548Z,80.82
2017-08-18T06:14:48.576Z,81.2
2017-08-18T06:15:48.566Z,81.78
2017-08-18T06:16:48.570Z,81.68
2017-08-18T06:17:48.565Z,81.49
2017-08-18T06:18:48.580Z,81.68
2017-08-18T06:19:48.587Z,81.78
2017-08-18T06:20:48.589Z,81.98
2017-08-18T06:21:48.277Z,81.01
2017-08-18T06:22:48.601Z,80.82
2017-08-18T06:23:48.617Z,80.82
2017-08-18T06:24:48.612Z,80.24
2017-08-18T06:25:48.296Z,79.66
2017-08-18T06:26:48.626Z,80.33
2017-08-18T06:27:48.614Z,80.82
2017-08-18T06:28:48.638Z,81.01
2017-08-18T06:29:48.614Z,81.4
2017-08-18T06:30:48.635Z,80.14
2017-08-18T06:31:48.637Z,79.41
2017-08-18T06:32:48.634Z,79.31
2017-08-18T06:33:48.329Z,78.83
2017-08-18T06:34:48.332Z,77.96
2017-08-18T06:35:48.654Z,77.22
2017-08-18T06:36:48.663Z,74.65
2017-08-18T06:37:48.669Z,73.14
2017-08-18T06:38:48.659Z,72.11
2017-08-18T06:39:48.381Z,71.44
2017-08-18T06:40:48.671Z,71.86
2017-08-18T06:41:48.675Z,71.86
2017-08-18T06:42:48.677Z,71.66
2017-08-18T06:43:48.406Z,71.47
2017-08-18T06:44:48.417Z,70.31
2017-08-18T06:45:48.406Z,67.53
2017-08-18T06:46:48.716Z,66.5
2017-08-18T06:47:48.768Z,64.98
2017-08-18T06:48:48.714Z,63.59
2017-08-18T06:49:48.714Z,61.97
2017-08-18T06:50:48.728Z,61.02
2017-08-18T06:51:48.724Z,59.41
2017-08-18T06:52:48.738Z,57.68
2017-08-18T06:53:48.741Z,57.78
2017-08-18T06:54:48.744Z,58.26
2017-08-18T06:55:48.754Z,58.75
2017-08-18T06:56:48.762Z,59.21
2017-08-18T06:57:48.765Z,59.21
2017-08-18T06:58:48.774Z,60.83
2017-08-18T06:59:48.781Z,61.45
2017-08-18T07:00:48.793Z,62.52
2017-08-18T07:01:48.509Z,63.75
2017-08-18T07:02:51.430Z,64.2
2017-08-18T07:03:48.802Z,64.98
2017-08-18T07:04:48.817Z,65.27
2017-08-18T07:05:48.816Z,64.2
2017-08-18T07:06:48.824Z,64.11
2017-08-18T07:07:48.587Z,64.5
2017-08-18T07:08:48.836Z,65.37
2017-08-18T07:09:48.843Z,65.53
2017-08-18T07:10:48.849Z,66.3
2017-08-18T07:11:48.863Z,67.34
2017-08-18T07:12:48.863Z,68.7
2017-08-18T07:13:48.867Z,69.15
2017-08-18T07:14:48.873Z,68.95
2017-08-18T07:15:48.591Z,69.11
2017-08-18T07:16:48.885Z,68.76
2017-08-18T07:17:48.890Z,68.27
2017-08-18T07:18:48.897Z,68.21
2017-08-18T07:19:48.909Z,68.7
2017-08-18T07:20:48.910Z,68.4
2017-08-18T07:21:48.915Z,68.21
2017-08-18T07:22:48.917Z,68.21
2017-08-18T07:23:48.927Z,67.53
2017-08-18T07:24:48.933Z,68.02
2017-08-18T07:25:48.938Z,66.95
2017-08-18T07:26:48.654Z,65.43
2017-08-18T07:27:48.662Z,64.4
2017-08-18T07:28:48.957Z,63.75
2017-08-18T07:29:48.967Z,62.49
2017-08-18T07:30:48.968Z,62.91
2017-08-18T07:31:48.977Z,62.04
2017-08-18T07:32:48.980Z,62.88
2017-08-18T07:33:48.981Z,63.07
2017-08-18T07:34:48.993Z,63.65
2017-08-18T07:35:48.996Z,63.72
2017-08-18T07:36:49.015Z,64.88
2017-08-18T07:37:49.014Z,65.43
2017-08-18T07:38:49.016Z,66.11
2017-08-18T07:39:49.019Z,66.2
2017-08-18T07:40:49.028Z,66.2
2017-08-18T07:41:49.033Z,66.27
2017-08-18T07:42:49.045Z,66.75
2017-08-18T07:43:49.054Z,67.05
2017-08-18T07:44:48.756Z,67.92
2017-08-18T07:45:49.064Z,67.72
2017-08-18T07:46:49.069Z,67.63
2017-08-18T07:47:49.075Z,68.02
2017-08-18T07:48:49.075Z,68.3
2017-08-18T07:49:48.774Z,68.4
2017-08-18T07:50:49.108Z,68.47
2017-08-18T07:51:48.789Z,68.47
2017-08-18T07:52:48.804Z,69.05
2017-08-18T07:53:48.793Z,69.05
2017-08-18T07:54:49.115Z,69.24
2017-08-18T07:55:48.802Z,69.15
2017-08-18T07:56:49.122Z,70.01
2017-08-18T07:57:49.127Z,70.5
2017-08-18T07:58:49.130Z,70.47
2017-08-18T07:59:48.850Z,70.6
2017-08-18T08:00:48.849Z,69.82
2017-08-18T08:01:49.162Z,69.63
2017-08-18T08:02:49.162Z,69.34
2017-08-18T08:03:49.166Z,69.27
2017-08-18T08:04:49.165Z,68.3
2017-08-18T08:05:48.871Z,66.4
2017-08-18T08:06:49.176Z,64.88
2017-08-18T08:07:48.873Z,62.91
2017-08-18T08:08:48.874Z,61
2017-08-18T08:09:48.880Z,59.31
2017-08-18T08:10:49.193Z,56.74
2017-08-18T08:11:49.198Z,56.96
2017-08-18T08:12:49.216Z,55.23
2017-08-18T08:13:49.210Z,54.48
2017-08-18T08:14:49.221Z,53.92
2017-08-18T08:15:49.228Z,53.14
2017-08-18T08:16:49.223Z,52.78
2017-08-18T08:17:49.232Z,51.51
2017-08-18T08:18:48.940Z,52
2017-08-18T08:19:48.952Z,51.9
2017-08-18T08:20:48.958Z,52
2017-08-18T08:21:49.259Z,51.7
2017-08-18T08:22:49.276Z,51.34
2017-08-18T08:23:49.282Z,49.71
2017-08-18T08:24:49.283Z,47.5
2017-08-18T08:25:48.986Z,45.98
2017-08-18T08:26:49.299Z,44.76
2017-08-18T08:27:49.006Z,44.38
2017-08-18T08:28:49.015Z,42.84
2017-08-18T08:29:49.327Z,42.66
2017-08-18T08:30:49.340Z,42.18
2017-08-18T08:31:49.342Z,41.49
2017-08-18T08:32:49.066Z,41.14
2017-08-18T08:33:51.515Z,41.43
2017-08-18T08:34:49.382Z,40.43
2017-08-18T08:35:49.383Z,40.53
2017-08-18T08:36:49.402Z,40.16
2017-08-18T08:37:49.407Z,40.13
2017-08-18T08:38:49.417Z,40.53
2017-08-18T08:39:49.424Z,41.9
2017-08-18T08:40:49.434Z,42.08
2017-08-18T08:41:49.449Z,42.82
2017-08-18T08:42:49.454Z,44.27
2017-08-18T08:43:49.177Z,46.28
2017-08-18T08:44:49.478Z,47.8
2017-08-18T08:45:49.486Z,50.68
2017-08-18T08:46:49.500Z,52.58
2017-08-18T08:47:49.503Z,52.56
2017-08-18T08:48:49.513Z,53.99
2017-08-18T08:49:49.223Z,54.16
2017-08-18T08:50:49.232Z,55.5
2017-08-18T08:51:49.540Z,55.37
2017-08-18T08:52:49.547Z,55.66
2017-08-18T08:53:49.560Z,55.47
2017-08-18T08:54:49.269Z,55.57
2017-08-18T08:55:49.581Z,57.59
2017-08-18T08:56:49.587Z,58.82
2017-08-18T08:57:49.591Z,58.14
2017-08-18T08:58:49.600Z,59.08
2017-08-18T08:59:49.611Z,59.47
2017-08-18T09:00:49.621Z,58.4
2017-08-18T09:01:49.623Z,59.76
2017-08-18T09:02:49.631Z,58.4
2017-08-18T09:03:54.652Z,59.95
2017-08-18T09:04:49.643Z,61.02
2017-08-18T09:05:49.654Z,59.76
2017-08-18T09:06:49.663Z,59.47
2017-08-18T09:07:49.664Z,59.18
2017-08-18T09:08:49.367Z,59.01
2017-08-18T09:09:49.676Z,58.33
2017-08-18T09:10:49.688Z,59.63
2017-08-18T09:11:49.694Z,59.11
2017-08-18T09:12:49.694Z,59.5
2017-08-18T09:13:49.706Z,57.36
2017-08-18T09:14:49.718Z,57.46
2017-08-18T09:15:49.714Z,56.9
2017-08-18T09:16:49.730Z,57
2017-08-18T09:17:49.732Z,55.15
2017-08-18T09:18:49.751Z,54.66
2017-08-18T09:19:49.446Z,56.03
2017-08-18T09:20:49.751Z,56.71
2017-08-18T09:21:49.756Z,55.15
2017-08-18T09:22:49.780Z,55.47
2017-08-18T09:23:49.770Z,54.69
2017-08-18T09:24:49.778Z,52.97
2017-08-18T09:25:49.784Z,52.22
2017-08-18T09:26:49.787Z,52.6
2017-08-18T09:27:49.798Z,52.89
2017-08-18T09:28:49.504Z,53.02
2017-08-18T09:29:49.809Z,53.8
2017-08-18T09:30:49.515Z,52.34
2017-08-18T09:31:49.824Z,52.73
2017-08-18T09:32:49.829Z,51.56
2017-08-18T09:33:49.838Z,51.26
2017-08-18T09:34:53.849Z,53.89
2017-08-18T09:35:49.849Z,55.91
2017-08-18T09:36:49.856Z,56.01
2017-08-18T09:37:49.562Z,54.94
2017-08-18T09:38:49.871Z,52.87
2017-08-18T09:39:49.874Z,53.06
2017-08-18T09:40:49.883Z,52.67
2017-08-18T09:41:49.888Z,51.99
2017-08-18T09:42:49.598Z,51.82
2017-08-18T09:43:49.902Z,52.89
2017-08-18T09:44:49.909Z,51.04
2017-08-18T09:45:49.919Z,50.29
2017-08-18T09:46:49.623Z,50.38
2017-08-18T09:47:49.931Z,49.71
2017-08-18T09:48:49.939Z,49.63
2017-08-18T09:49:49.948Z,53.05
2017-08-18T09:50:49.954Z,52.17
2017-08-18T09:51:49.955Z,54.9
2017-08-18T09:52:49.967Z,53.92
2017-08-18T09:53:49.967Z,51.56
2017-08-18T09:54:49.701Z,49.73
2017-08-18T09:55:50.004Z,49.22
2017-08-18T09:56:50.067Z,51.19
2017-08-18T09:57:50.066Z,50.31
2017-08-18T09:58:49.728Z,49.05
2017-08-18T09:59:50.037Z,49.44
2017-08-18T10:00:50.080Z,49.32
2017-08-18T10:01:49.764Z,49.32
2017-08-18T10:02:50.113Z,49.61
2017-08-18T10:03:50.108Z,48.83
2017-08-18T10:04:50.090Z,49.22
2017-08-18T10:05:50.127Z,48.83
2017-08-18T10:06:49.799Z,49.02
2017-08-18T10:07:50.147Z,49.02
2017-08-18T10:08:50.099Z,49.02
2017-08-18T10:09:50.143Z,53.11
2017-08-18T10:10:50.206Z,53.11
2017-08-18T10:11:50.157Z,51.75
2017-08-18T10:12:49.825Z,50.19
2017-08-18T10:13:50.114Z,50.78
2017-08-18T10:14:50.112Z,49.12
2017-08-18T10:15:50.117Z,48.95
2017-08-18T10:16:49.823Z,51.29
2017-08-18T10:17:49.833Z,50.7
2017-08-18T10:18:50.144Z,49.15
2017-08-18T10:19:50.145Z,49.34
2017-08-18T10:20:50.154Z,49.63
2017-08-18T10:21:49.852Z,48.68
2017-08-18T10:22:50.170Z,50.63
2017-08-18T10:23:50.169Z,49.17
2017-08-18T10:24:50.175Z,48.68
2017-08-18T10:25:50.185Z,48.1
2017-08-18T10:26:50.195Z,47.41
2017-08-18T10:27:50.201Z,48
2017-08-18T10:28:50.208Z,49.85
2017-08-18T10:29:50.211Z,48.97
2017-08-18T10:30:50.228Z,47.51
2017-08-18T10:31:50.243Z,49.56
2017-08-18T10:32:50.229Z,50.34
2017-08-18T10:33:50.239Z,49.76
2017-08-18T10:34:49.942Z,49.63
2017-08-18T10:35:52.252Z,49.73
2017-08-18T10:36:50.257Z,49.63
2017-08-18T10:37:49.966Z,49.95
2017-08-18T10:38:49.968Z,49.17
2017-08-18T10:39:50.278Z,46.73
2017-08-18T10:40:50.294Z,47.22
2017-08-18T10:41:50.291Z,46.63
2017-08-18T10:42:50.295Z,47.8
2017-08-18T10:43:50.302Z,47.22
2017-08-18T10:44:50.309Z,47.41
2017-08-18T10:45:50.333Z,47.02
2017-08-18T10:46:50.337Z,47.31
2017-08-18T10:47:50.028Z,47.31
2017-08-18T10:48:50.340Z,47.12
2017-08-18T10:49:50.046Z,47.24
2017-08-18T10:50:50.053Z,46.63
2017-08-18T10:51:50.061Z,47.22
2017-08-18T10:52:50.363Z,46.53
2017-08-18T10:53:50.374Z,48.39
2017-08-18T10:54:50.376Z,48.49
2017-08-18T10:55:50.397Z,48.66
2017-08-18T10:56:50.398Z,48.36
2017-08-18T10:57:50.422Z,48.66
2017-08-18T10:58:50.099Z,49.05
2017-08-18T10:59:50.413Z,49.73
2017-08-18T11:00:50.416Z,49.05
2017-08-18T11:01:50.553Z,49.71
2017-08-18T11:02:50.129Z,49.71
2017-08-18T11:03:50.438Z,50.29
2017-08-18T11:04:50.442Z,49.8
2017-08-18T11:05:51.714Z,49.83
2017-08-18T11:06:50.151Z,51.58
2017-08-18T11:07:50.458Z,49.73
2017-08-18T11:08:50.515Z,49.54
2017-08-18T11:09:50.473Z,48.75
2017-08-18T11:10:50.476Z,48.97
2017-08-18T11:11:50.485Z,46.53
2017-08-18T11:12:50.570Z,46.75
2017-08-18T11:13:50.497Z,47.61
2017-08-18T11:14:50.505Z,47.41
2017-08-18T11:15:50.221Z,47.14
2017-08-18T11:16:50.521Z,45.97
2017-08-18T11:17:50.523Z,46.26
2017-08-18T11:18:50.531Z,45.97
2017-08-18T11:19:50.236Z,46.46
2017-08-18T11:20:50.548Z,46.17
2017-08-18T11:21:50.251Z,46.07
2017-08-18T11:22:50.556Z,45.7
2017-08-18T11:23:50.562Z,44.43
2017-08-18T11:24:50.571Z,43.57
2017-08-18T11:25:50.584Z,44.35
2017-08-18T11:26:50.585Z,43.57
2017-08-18T11:27:50.588Z,44.45
2017-08-18T11:28:50.292Z,45.23
2017-08-18T11:29:50.603Z,44.84
2017-08-18T11:30:50.611Z,45.14
2017-08-18T11:31:50.457Z,45.82
2017-08-18T11:32:50.705Z,45.92
2017-08-18T11:33:50.631Z,45.43
2017-08-18T11:34:50.644Z,44.65
2017-08-18T11:35:50.648Z,44.28
2017-08-18T11:36:50.368Z,44.48
2017-08-18T11:37:50.669Z,44.18
2017-08-18T11:38:50.369Z,43.96
2017-08-18T11:39:50.677Z,44.06
2017-08-18T11:40:50.691Z,44.35
2017-08-18T11:41:50.692Z,44.65
2017-08-18T11:42:50.409Z,43.57
2017-08-18T11:43:50.707Z,44.06
2017-08-18T11:44:50.411Z,43.67
2017-08-18T11:45:50.719Z,44.26
2017-08-18T11:46:50.733Z,44.24
2017-08-18T11:47:50.428Z,45.21
2017-08-18T11:48:50.434Z,44.43
2017-08-18T11:49:50.756Z,45.21
2017-08-18T11:50:50.756Z,46.78
2017-08-18T11:51:50.765Z,45.41
2017-08-18T11:52:50.763Z,45.8
2017-08-18T11:53:50.772Z,45.92
2017-08-18T11:54:50.785Z,45.43
2017-08-18T11:55:50.784Z,45.23
2017-08-18T11:56:50.794Z,44.65
2017-08-18T11:57:50.805Z,44.16
2017-08-18T11:58:50.815Z,44.35
2017-08-18T11:59:50.819Z,44.35
2017-08-18T12:00:50.523Z,43.99
2017-08-18T12:01:50.829Z,43.87
2017-08-18T12:02:50.847Z,44.45
2017-08-18T12:03:50.846Z,43.57
2017-08-18T12:04:50.850Z,43.57
2017-08-18T12:05:50.855Z,44.24
2017-08-18T12:06:52.718Z,45.02
2017-08-18T12:07:50.873Z,45.29
2017-08-18T12:08:50.880Z,45.58
2017-08-18T12:09:50.883Z,45.29
2017-08-18T12:10:50.591Z,44.9
2017-08-18T12:11:50.909Z,45.87
2017-08-18T12:12:50.919Z,46.26
2017-08-18T12:13:50.918Z,45.12
2017-08-18T12:14:50.927Z,45.31
2017-08-18T12:15:50.928Z,46
2017-08-18T12:16:50.948Z,45.43
2017-08-18T12:17:50.946Z,45.82
2017-08-18T12:18:50.949Z,46.01
2017-08-18T12:19:50.961Z,45.33
2017-08-18T12:20:50.683Z,44.16
2017-08-18T12:21:51.072Z,43.89
2017-08-18T12:22:50.989Z,43.99
2017-08-18T12:23:51.043Z,43.4
2017-08-18T12:24:51.026Z,43.3
2017-08-18T12:25:51.021Z,43.4
2017-08-18T12:26:51.008Z,42.32
2017-08-18T12:27:51.027Z,42.61
2017-08-18T12:28:51.044Z,43.1
2017-08-18T12:29:51.037Z,43.01
2017-08-18T12:30:51.048Z,44.09
2017-08-18T12:31:51.053Z,43.49
2017-08-18T12:32:51.064Z,42.05
2017-08-18T12:33:51.077Z,41.86
2017-08-18T12:34:51.087Z,42.64
2017-08-18T12:35:51.087Z,44.23
2017-08-18T12:36:54.610Z,41.39
2017-08-18T12:37:51.090Z,41.99
2017-08-18T12:38:51.096Z,41.7
2017-08-18T12:39:51.101Z,41.21
2017-08-18T12:40:50.806Z,40.45
2017-08-18T12:41:51.113Z,40.64
2017-08-18T12:42:51.144Z,39.96
2017-08-18T12:43:51.139Z,40.06
2017-08-18T12:44:51.140Z,40.74
2017-08-18T12:45:51.145Z,40.45
2017-08-18T12:46:51.165Z,39.78
2017-08-18T12:47:51.162Z,40.56
2017-08-18T12:48:51.185Z,41.45
2017-08-18T12:49:51.203Z,40.45
2017-08-18T12:50:51.188Z,40.66
2017-08-18T12:51:50.886Z,40.27
2017-08-18T12:52:50.898Z,39.49
2017-08-18T12:53:51.222Z,42.33
2017-08-18T12:54:51.216Z,42.13